createdAt,value
2023-04-29T00:01:32.361Z,55.15
2023-04-29T00:03:59.960Z,51.47
2023-04-29T00:06:28.543Z,55.33
2023-04-29T00:08:55.983Z,55.03
2023-04-29T00:11:23.331Z,57.08
2023-04-29T00:13:50.676Z,61.58
2023-04-29T00:16:18.799Z,54.90
2023-04-29T00:18:46.372Z,56.75
2023-04-29T00:21:13.716Z,56.63
2023-04-29T00:23:41.078Z,56.88
2023-04-29T00:26:08.440Z,60.38
2023-04-29T00:28:35.761Z,61.75
2023-04-29T00:31:03.240Z,56.47
2023-04-29T00:33:31.057Z,56.45
2023-04-29T00:35:58.367Z,54.72
2023-04-29T00:38:25.960Z,54.83
2023-04-29T00:40:53.461Z,55.63
2023-04-29T00:43:21.205Z,60.05
2023-04-29T00:45:48.916Z,56.65
2023-04-29T00:48:16.561Z,60.97
2023-04-29T00:50:43.942Z,59.58
2023-04-29T00:53:12.963Z,68.30
2023-04-29T00:55:42.029Z,70.43
2023-04-29T00:58:10.532Z,71.10
2023-04-29T01:00:38.041Z,76.20
2023-04-29T01:03:06.560Z,67.25
2023-04-29T01:05:34.474Z,68.75
2023-04-29T01:08:38.754Z,62.13
2023-04-29T01:11:13.594Z,70.43
2023-04-29T01:13:45.745Z,64.07
2023-04-29T01:16:24.547Z,75.05
2023-04-29T01:18:57.565Z,65.28
2023-04-29T01:21:26.219Z,69.95
2023-04-29T01:23:56.360Z,68.55
2023-04-29T01:26:24.660Z,75.57
2023-04-29T01:29:01.935Z,77.97
2023-04-29T01:31:42.054Z,73.90
2023-04-29T01:34:18.508Z,73.03
2023-04-29T01:37:06.981Z,74.22
2023-04-29T01:39:45.512Z,57.80
2023-04-29T01:42:36.663Z,60.85
2023-04-29T01:45:06.956Z,54.40
2023-04-29T01:47:34.494Z,52.08
2023-04-29T01:50:03.043Z,61.78
2023-04-29T01:52:30.573Z,56.30
2023-04-29T01:54:58.199Z,60.15
2023-04-29T01:57:25.550Z,58.70
2023-04-29T01:59:53.188Z,58.35
2023-04-29T02:02:23.757Z,49.42
2023-04-29T02:04:51.636Z,55.53
2023-04-29T02:07:19.020Z,54.08
2023-04-29T02:09:46.432Z,50.65
2023-04-29T02:12:13.820Z,47.22
2023-04-29T02:14:41.367Z,50.45
2023-04-29T02:17:08.874Z,57.17
2023-04-29T02:19:36.388Z,52.28
2023-04-29T02:22:03.809Z,53.80
2023-04-29T02:24:31.286Z,53.78
2023-04-29T02:26:59.669Z,54.28
2023-04-29T02:29:29.706Z,51.30
2023-04-29T02:31:57.124Z,55.05
2023-04-29T02:34:24.568Z,49.88
2023-04-29T02:36:52.061Z,51.15
2023-04-29T02:39:20.643Z,54.58
2023-04-29T02:41:47.985Z,51.58
2023-04-29T02:44:15.407Z,51.33
2023-04-29T02:46:45.446Z,50.67
2023-04-29T02:49:14.058Z,43.88
2023-04-29T02:51:41.489Z,46.72
2023-04-29T02:54:09.194Z,51.30
2023-04-29T02:56:36.558Z,48.13
2023-04-29T02:59:03.918Z,46.45
2023-04-29T03:01:31.430Z,50.83
2023-04-29T03:03:59.059Z,57.58
2023-04-29T03:06:27.802Z,56.05
2023-04-29T03:08:55.195Z,52.88
2023-04-29T03:11:24.850Z,52.75
2023-04-29T03:13:52.300Z,54.72
2023-04-29T03:16:19.698Z,52.92
2023-04-29T03:18:47.047Z,51.75
2023-04-29T03:21:14.460Z,55.28
2023-04-29T03:23:42.837Z,51.60
2023-04-29T03:26:10.533Z,54.90
2023-04-29T03:28:38.034Z,53.33
2023-04-29T03:31:07.672Z,48.53
2023-04-29T03:33:35.048Z,47.42
2023-04-29T03:36:03.307Z,48.25
2023-04-29T03:38:30.695Z,46.13
2023-04-29T03:40:58.135Z,50.42
2023-04-29T03:43:25.601Z,41.38
2023-04-29T03:45:53.155Z,48.80
2023-04-29T03:48:21.472Z,46.00
2023-04-29T03:50:48.815Z,46.80
2023-04-29T03:53:17.345Z,46.13
2023-04-29T03:55:44.893Z,46.88
2023-04-29T03:58:12.259Z,43.35
2023-04-29T04:00:39.591Z,48.35
2023-04-29T04:03:10.217Z,44.45
2023-04-29T04:05:37.742Z,45.00
2023-04-29T04:08:05.357Z,40.90
2023-04-29T04:10:32.844Z,42.20
2023-04-29T04:13:01.513Z,40.17
2023-04-29T04:15:28.921Z,43.33
2023-04-29T04:17:56.320Z,39.83
2023-04-29T04:20:23.700Z,37.70
2023-04-29T04:22:51.047Z,44.00
2023-04-29T04:25:18.430Z,42.42
2023-04-29T04:27:45.856Z,40.22
2023-04-29T04:30:13.403Z,47.50
2023-04-29T04:32:41.297Z,40.05
2023-04-29T04:35:09.105Z,38.05
2023-04-29T04:37:36.518Z,42.20
2023-04-29T04:40:04.345Z,39.33
2023-04-29T04:42:31.663Z,41.03
2023-04-29T04:44:59.047Z,42.35
2023-04-29T04:47:26.786Z,40.42
2023-04-29T04:49:54.396Z,41.65
2023-04-29T04:52:22.296Z,43.40
2023-04-29T04:54:49.712Z,36.85
2023-04-29T04:57:17.143Z,39.83
2023-04-29T04:59:44.565Z,39.40
2023-04-29T05:02:11.969Z,39.42
2023-04-29T05:04:39.336Z,38.53
2023-04-29T05:07:06.680Z,38.95
2023-04-29T05:09:34.217Z,38.40
2023-04-29T05:12:01.667Z,38.45
2023-04-29T05:14:29.090Z,39.33
2023-04-29T05:17:00.228Z,44.70
2023-04-29T05:19:27.878Z,45.42
2023-04-29T05:21:55.279Z,39.85
2023-04-29T05:24:22.607Z,43.30
2023-04-29T05:26:52.010Z,45.85
2023-04-29T05:29:19.425Z,43.35
2023-04-29T05:31:46.808Z,45.47
2023-04-29T05:34:14.126Z,46.95
2023-04-29T05:36:41.724Z,46.70
2023-04-29T05:39:09.226Z,43.25
2023-04-29T05:41:36.643Z,46.03
2023-04-29T05:44:04.004Z,48.20
2023-04-29T05:46:31.407Z,42.78
2023-04-29T05:48:58.764Z,47.35
2023-04-29T05:51:26.249Z,42.88
2023-04-29T05:53:53.894Z,44.35
2023-04-29T05:56:22.437Z,44.95
2023-04-29T05:58:50.335Z,47.58
2023-04-29T06:01:17.767Z,43.83
2023-04-29T06:03:45.534Z,46.97
2023-04-29T06:06:13.038Z,47.42
2023-04-29T06:08:40.477Z,48.88
2023-04-29T06:11:08.072Z,49.08
2023-04-29T06:13:36.225Z,53.35
2023-04-29T06:16:03.777Z,48.25
2023-04-29T06:18:31.334Z,48.90
2023-04-29T06:20:58.679Z,49.55
2023-04-29T06:23:26.094Z,50.67
2023-04-29T06:25:53.421Z,44.33
2023-04-29T06:28:20.961Z,48.03
2023-04-29T06:30:48.310Z,49.35
2023-04-29T06:33:15.672Z,53.00
2023-04-29T06:35:43.101Z,48.65
2023-04-29T06:38:11.003Z,42.88
2023-04-29T06:40:38.455Z,47.15
2023-04-29T06:43:05.807Z,51.25
2023-04-29T06:45:33.270Z,47.85
2023-04-29T06:48:00.727Z,49.05
2023-04-29T06:50:28.480Z,50.63
2023-04-29T06:52:55.982Z,48.10
2023-04-29T06:55:23.449Z,41.88
2023-04-29T06:57:50.925Z,42.05
2023-04-29T07:00:21.112Z,45.20
2023-04-29T07:02:48.691Z,38.67
2023-04-29T07:05:16.178Z,36.90
2023-04-29T07:07:43.538Z,40.10
2023-04-29T07:10:11.097Z,40.67
2023-04-29T07:12:38.712Z,38.97
2023-04-29T07:15:06.916Z,36.42
2023-04-29T07:17:34.312Z,39.63
2023-04-29T07:20:01.770Z,40.88
2023-04-29T07:22:29.143Z,30.83
2023-04-29T07:24:57.152Z,32.85
2023-04-29T07:27:24.816Z,31.90
2023-04-29T07:29:52.220Z,31.88
2023-04-29T07:32:19.655Z,29.50
2023-04-29T07:34:47.732Z,33.70
2023-04-29T07:37:15.067Z,33.30
2023-04-29T07:39:42.736Z,26.13
2023-04-29T07:42:10.123Z,30.25
2023-04-29T07:44:37.580Z,29.63
2023-04-29T07:47:05.026Z,30.23
2023-04-29T07:49:32.439Z,27.20
2023-04-29T07:52:00.282Z,26.92
2023-04-29T07:54:27.889Z,31.45
2023-04-29T07:56:55.649Z,29.25
2023-04-29T07:59:23.138Z,32.05
2023-04-29T08:01:50.559Z,24.67
2023-04-29T08:04:18.066Z,27.80
2023-04-29T08:06:45.580Z,26.13
2023-04-29T08:09:13.196Z,26.02
2023-04-29T08:11:40.534Z,28.13
2023-04-29T08:14:08.837Z,28.02
2023-04-29T08:16:36.567Z,23.92
2023-04-29T08:19:04.347Z,27.92
2023-04-29T08:21:32.181Z,23.35
2023-04-29T08:23:59.580Z,22.98
2023-04-29T08:26:27.466Z,23.35
2023-04-29T08:28:54.924Z,20.33
2023-04-29T08:31:22.636Z,21.50
2023-04-29T08:33:50.175Z,19.42
2023-04-29T08:36:17.631Z,22.02
2023-04-29T08:38:45.156Z,20.08
2023-04-29T08:41:14.745Z,16.02
2023-04-29T08:43:42.267Z,18.73
2023-04-29T08:46:10.843Z,18.38
2023-04-29T08:48:42.581Z,21.38
2023-04-29T08:51:16.303Z,21.80
2023-04-29T08:53:43.678Z,20.05
2023-04-29T08:56:20.566Z,18.38
2023-04-29T08:58:51.909Z,17.08
2023-04-29T09:01:19.621Z,16.90
2023-04-29T09:04:16.291Z,16.00
2023-04-29T09:06:43.936Z,15.55
2023-04-29T09:09:14.066Z,16.45
2023-04-29T09:11:41.462Z,17.38
2023-04-29T09:14:09.475Z,16.17
2023-04-29T09:16:38.387Z,16.25
2023-04-29T09:19:06.163Z,15.13
2023-04-29T09:21:33.612Z,14.75
2023-04-29T09:24:02.910Z,16.80
2023-04-29T09:26:44.098Z,16.25
2023-04-29T09:29:18.347Z,14.77
2023-04-29T09:31:46.711Z,17.23
2023-04-29T09:34:14.715Z,16.10
2023-04-29T09:36:45.621Z,17.00
2023-04-29T09:39:20.507Z,15.38
2023-04-29T09:41:53.872Z,18.27
2023-04-29T09:44:26.766Z,16.02
2023-04-29T09:49:30.105Z,14.60
2023-04-29T09:52:02.115Z,14.50
2023-04-29T09:54:31.314Z,15.80
2023-04-29T09:57:02.815Z,14.93
2023-04-29T09:59:30.448Z,14.90
2023-04-29T10:01:59.055Z,14.48
2023-04-29T10:04:27.992Z,16.52
2023-04-29T10:06:56.252Z,17.95
2023-04-29T10:09:24.669Z,15.40
2023-04-29T10:11:53.112Z,11.90
2023-04-29T10:14:22.011Z,14.07
2023-04-29T10:16:52.685Z,14.68
2023-04-29T10:19:38.364Z,16.00
2023-04-29T10:22:12.644Z,13.45
2023-04-29T10:24:40.884Z,14.25
2023-04-29T10:27:09.165Z,15.43
2023-04-29T10:29:38.792Z,15.40
2023-04-29T10:32:10.151Z,14.45
2023-04-29T10:34:41.669Z,12.70
2023-04-29T10:37:12.957Z,9.13
2023-04-29T10:39:51.168Z,13.38
2023-04-29T10:42:45.888Z,11.73
2023-04-29T10:45:32.754Z,15.20
2023-04-29T10:48:13.362Z,15.32
2023-04-29T10:50:45.457Z,12.18
2023-04-29T10:53:14.223Z,12.13
2023-04-29T10:55:42.151Z,10.45
2023-04-29T10:58:46.892Z,12.23
2023-04-29T11:01:18.076Z,9.75
2023-04-29T11:03:59.921Z,10.38
2023-04-29T11:06:43.097Z,13.13
2023-04-29T11:11:54.128Z,10.27
2023-04-29T11:14:37.547Z,13.50
2023-04-29T11:17:10.631Z,14.20
2023-04-29T11:19:45.545Z,10.70
2023-04-29T11:22:19.032Z,10.93
2023-04-29T11:24:58.666Z,13.00
2023-04-29T11:27:27.841Z,12.50
2023-04-29T11:29:58.585Z,11.77
2023-04-29T11:32:28.360Z,9.77
2023-04-29T11:34:56.394Z,12.45
2023-04-29T11:37:25.840Z,13.65
2023-04-29T11:39:59.491Z,10.00
2023-04-29T11:42:27.307Z,13.02
2023-04-29T11:44:59.458Z,12.82
2023-04-29T11:47:31.197Z,12.50
2023-04-29T11:50:06.051Z,11.43
2023-04-29T11:52:34.853Z,12.80
2023-04-29T11:55:02.422Z,10.18
2023-04-29T11:57:30.001Z,9.80
2023-04-29T11:59:58.827Z,10.70
2023-04-29T12:02:35.996Z,10.80
2023-04-29T12:05:08.694Z,10.32
2023-04-29T12:07:37.177Z,12.00
2023-04-29T12:10:08.715Z,12.77
2023-04-29T12:12:36.480Z,8.57
2023-04-29T12:15:05.526Z,7.13
2023-04-29T12:17:32.989Z,6.13
2023-04-29T12:20:00.537Z,9.32
2023-04-29T12:22:35.869Z,8.00
2023-04-29T12:25:07.996Z,9.05
2023-04-29T12:27:36.927Z,11.20
2023-04-29T12:30:09.586Z,12.20
2023-04-29T12:35:05.251Z,9.68
2023-04-29T12:37:33.312Z,11.18
2023-04-29T12:40:00.757Z,12.23
2023-04-29T12:42:34.370Z,9.10
2023-04-29T12:45:01.801Z,11.63
2023-04-29T12:47:37.230Z,7.57
2023-04-29T12:50:06.981Z,9.55
2023-04-29T12:52:36.560Z,9.70
2023-04-29T12:55:04.913Z,10.02
2023-04-29T12:57:32.691Z,9.73
2023-04-29T13:00:00.378Z,8.63
2023-04-29T13:02:28.372Z,10.30
2023-04-29T13:04:56.325Z,9.57
2023-04-29T13:07:24.323Z,12.10
2023-04-29T13:09:51.881Z,8.50
2023-04-29T13:12:19.265Z,9.57
2023-04-29T13:14:46.937Z,7.22
2023-04-29T13:17:15.320Z,7.10
2023-04-29T13:19:51.283Z,4.85
2023-04-29T13:22:19.628Z,7.15
2023-04-29T13:24:47.527Z,6.82
2023-04-29T13:27:18.010Z,8.18
2023-04-29T13:29:45.443Z,6.18
2023-04-29T13:32:12.968Z,6.00
2023-04-29T13:34:43.386Z,4.97
2023-04-29T13:37:11.744Z,4.72
2023-04-29T13:39:39.742Z,6.20
2023-04-29T13:42:08.947Z,5.22
2023-04-29T13:44:59.931Z,6.07
2023-04-29T13:47:26.012Z,6.32
2023-04-29T13:50:22.609Z,4.53
2023-04-29T13:55:49.381Z,6.03
2023-04-29T13:58:43.537Z,9.50
2023-04-29T14:01:11.135Z,6.50
2023-04-29T14:03:36.631Z,5.63
2023-04-29T14:06:04.412Z,6.22
2023-04-29T14:08:32.212Z,5.13
2023-04-29T14:10:59.818Z,5.32
2023-04-29T14:13:29.784Z,7.47
2023-04-29T14:15:57.571Z,7.20
2023-04-29T14:18:25.155Z,6.80
2023-04-29T14:20:53.690Z,6.07
2023-04-29T14:23:21.714Z,8.75
2023-04-29T14:25:49.126Z,10.13
2023-04-29T14:28:16.546Z,8.32
2023-04-29T14:30:46.185Z,7.32
2023-04-29T14:33:14.361Z,6.95
2023-04-29T14:35:41.749Z,11.45
2023-04-29T14:38:09.070Z,8.00
2023-04-29T14:40:36.962Z,8.60
2023-04-29T14:43:04.767Z,10.25
2023-04-29T14:45:32.127Z,9.80
2023-04-29T14:47:59.529Z,9.93
2023-04-29T14:50:27.000Z,8.48
2023-04-29T14:52:54.376Z,9.35
2023-04-29T14:55:21.770Z,8.73
2023-04-29T14:57:49.316Z,9.55
2023-04-29T15:00:17.111Z,12.38
2023-04-29T15:02:44.659Z,10.57
2023-04-29T15:05:12.065Z,15.52
2023-04-29T15:07:39.523Z,13.82
2023-04-29T15:10:09.348Z,14.30
2023-04-29T15:12:36.983Z,13.05
2023-04-29T15:15:04.863Z,15.25
2023-04-29T15:17:32.319Z,16.67
2023-04-29T15:19:59.701Z,14.05
2023-04-29T15:22:27.265Z,9.38
2023-04-29T15:24:54.544Z,12.13
2023-04-29T15:27:21.883Z,10.45
2023-04-29T15:29:49.229Z,8.60
2023-04-29T15:32:16.722Z,11.43
2023-04-29T15:34:44.282Z,13.30
2023-04-29T15:37:14.855Z,13.98
2023-04-29T15:39:42.182Z,14.25
2023-04-29T15:42:09.576Z,10.77
2023-04-29T15:44:36.926Z,10.88
2023-04-29T15:47:04.426Z,14.00
2023-04-29T15:49:31.884Z,9.95
2023-04-29T15:51:59.218Z,10.70
2023-04-29T15:54:26.736Z,14.95
2023-04-29T15:56:55.245Z,12.38
2023-04-29T15:59:22.695Z,11.27
2023-04-29T16:01:50.078Z,11.43
2023-04-29T16:04:17.573Z,12.18
2023-04-29T16:06:45.348Z,12.32
2023-04-29T16:09:12.784Z,16.27
2023-04-29T16:11:40.240Z,13.45
2023-04-29T16:14:07.672Z,13.57
2023-04-29T16:16:35.083Z,13.35
2023-04-29T16:19:02.687Z,13.82
2023-04-29T16:21:30.574Z,14.55
2023-04-29T16:23:58.171Z,11.48
2023-04-29T16:26:26.064Z,15.02
2023-04-29T16:28:53.441Z,10.90
2023-04-29T16:31:20.962Z,10.55
2023-04-29T16:33:48.586Z,14.55
2023-04-29T16:36:15.946Z,16.05
2023-04-29T16:38:43.270Z,11.05
2023-04-29T16:41:10.743Z,11.02
2023-04-29T16:43:38.089Z,13.38
2023-04-29T16:46:05.581Z,11.43
2023-04-29T16:48:33.011Z,11.70
2023-04-29T16:51:00.344Z,13.98
2023-04-29T16:53:27.855Z,13.07
2023-04-29T16:55:55.664Z,13.70
2023-04-29T16:58:23.227Z,12.55
2023-04-29T17:00:50.610Z,11.80
2023-04-29T17:03:18.226Z,8.95
2023-04-29T17:05:45.586Z,12.50
2023-04-29T17:08:14.718Z,10.85
2023-04-29T17:10:42.174Z,11.65
2023-04-29T17:13:09.837Z,10.52
2023-04-29T17:15:37.207Z,10.77
2023-04-29T17:18:04.728Z,9.48
2023-04-29T17:20:32.581Z,12.23
2023-04-29T17:22:59.930Z,11.77
2023-04-29T17:25:27.418Z,10.43
2023-04-29T17:27:54.765Z,10.30
2023-04-29T17:30:22.192Z,12.30
2023-04-29T17:32:49.971Z,8.95
2023-04-29T17:35:17.466Z,10.75
2023-04-29T17:37:44.859Z,8.35
2023-04-29T17:40:12.489Z,10.70
2023-04-29T17:42:40.350Z,8.75
2023-04-29T17:45:08.441Z,11.85
2023-04-29T17:47:36.112Z,13.13
2023-04-29T17:50:03.991Z,8.38
2023-04-29T17:52:31.547Z,7.78
2023-04-29T17:54:58.936Z,9.40
2023-04-29T17:57:26.330Z,6.65
2023-04-29T17:59:54.098Z,10.82
2023-04-29T18:02:21.850Z,8.45
2023-04-29T18:04:49.229Z,8.38
2023-04-29T18:07:17.127Z,7.18
2023-04-29T18:09:44.546Z,6.10
2023-04-29T18:12:11.913Z,10.85
2023-04-29T18:14:39.310Z,14.23
2023-04-29T18:17:06.702Z,8.05
2023-04-29T18:19:34.260Z,9.02
2023-04-29T18:22:02.771Z,7.85
2023-04-29T18:24:30.191Z,7.93
2023-04-29T18:26:58.005Z,7.63
2023-04-29T18:29:25.510Z,8.85
2023-04-29T18:31:54.870Z,9.25
2023-04-29T18:34:22.369Z,11.05
2023-04-29T18:36:49.680Z,8.45
2023-04-29T18:39:18.139Z,8.02
2023-04-29T18:41:45.598Z,8.40
2023-04-29T18:44:13.005Z,11.38
2023-04-29T18:46:41.314Z,8.07
2023-04-29T18:49:11.744Z,9.73
2023-04-29T18:51:40.457Z,8.52
2023-04-29T18:54:07.853Z,8.85
2023-04-29T18:56:35.321Z,8.73
2023-04-29T18:59:02.704Z,6.82
2023-04-29T19:01:30.350Z,8.73
2023-04-29T19:03:57.873Z,8.30
2023-04-29T19:06:25.438Z,9.73
2023-04-29T19:08:52.844Z,6.68
2023-04-29T19:11:23.318Z,8.77
2023-04-29T19:13:50.834Z,9.48
2023-04-29T19:16:18.278Z,10.18
2023-04-29T19:18:46.530Z,9.98
2023-04-29T19:21:16.772Z,10.13
2023-04-29T19:23:44.429Z,9.27
2023-04-29T19:26:11.963Z,10.30
2023-04-29T19:28:39.681Z,9.77
2023-04-29T19:31:07.206Z,9.98
2023-04-29T19:33:34.670Z,10.75
2023-04-29T19:36:02.576Z,10.35
2023-04-29T19:38:29.940Z,10.98
2023-04-29T19:40:57.417Z,10.43
2023-04-29T19:43:24.755Z,10.05
2023-04-29T19:45:52.171Z,11.18
2023-04-29T19:48:19.617Z,10.40
2023-04-29T19:50:47.076Z,13.63
2023-04-29T19:53:14.521Z,14.68
2023-04-29T19:55:42.135Z,12.40
2023-04-29T19:58:09.477Z,12.43
2023-04-29T20:00:37.057Z,12.15
2023-04-29T20:03:04.465Z,10.82
2023-04-29T20:05:32.000Z,10.20
2023-04-29T20:07:59.478Z,15.98
2023-04-29T20:10:29.062Z,9.98
2023-04-29T20:12:57.400Z,13.23
2023-04-29T20:15:24.956Z,10.60
2023-04-29T20:17:52.317Z,15.23
2023-04-29T20:20:19.804Z,14.25
2023-04-29T20:22:47.245Z,14.00
2023-04-29T20:25:14.561Z,12.88
2023-04-29T20:27:41.951Z,13.75
2023-04-29T20:30:10.941Z,12.02
2023-04-29T20:32:38.662Z,12.65
2023-04-29T20:35:06.665Z,13.50
2023-04-29T20:37:34.044Z,14.52
2023-04-29T20:40:01.390Z,10.20
2023-04-29T20:42:28.740Z,11.20
2023-04-29T20:44:56.535Z,9.35
2023-04-29T20:47:23.919Z,9.77
2023-04-29T20:49:51.455Z,9.35
2023-04-29T20:52:19.484Z,12.23
2023-04-29T20:54:47.053Z,12.43
2023-04-29T20:57:14.447Z,11.30
2023-04-29T20:59:42.179Z,12.13
2023-04-29T21:02:09.895Z,15.80
2023-04-29T21:04:37.341Z,12.30
2023-04-29T21:07:07.061Z,12.48
2023-04-29T21:09:35.859Z,9.38
2023-04-29T21:12:06.326Z,11.70
2023-04-29T21:14:34.850Z,13.65
2023-04-29T21:17:02.312Z,17.45
2023-04-29T21:19:29.688Z,12.50
2023-04-29T21:21:57.206Z,13.73
2023-04-29T21:24:24.562Z,12.52
2023-04-29T21:26:51.927Z,12.88
2023-04-29T21:29:22.317Z,14.02
2023-04-29T21:31:49.726Z,13.90
2023-04-29T21:34:17.420Z,12.52
2023-04-29T21:36:44.957Z,11.75
2023-04-29T21:39:12.349Z,16.73
2023-04-29T21:41:40.894Z,13.93
2023-04-29T21:44:08.354Z,11.65
2023-04-29T21:46:37.289Z,12.95
2023-04-29T21:49:04.698Z,13.32
2023-04-29T21:51:32.151Z,15.15
2023-04-29T21:53:59.585Z,16.17
2023-04-29T21:56:27.146Z,13.93
2023-04-29T21:58:54.514Z,16.33
2023-04-29T22:01:40.435Z,15.95
2023-04-29T22:04:08.523Z,13.18
2023-04-29T22:06:36.067Z,14.73
2023-04-29T22:09:03.846Z,17.52
2023-04-29T22:11:31.221Z,15.10
2023-04-29T22:13:58.679Z,15.50
2023-04-29T22:16:26.198Z,17.30
2023-04-29T22:18:53.666Z,16.08
2023-04-29T22:21:21.178Z,15.85
2023-04-29T22:23:49.234Z,13.90
2023-04-29T22:26:16.596Z,14.73
2023-04-29T22:28:44.068Z,15.38
2023-04-29T22:31:11.577Z,15.82
2023-04-29T22:33:38.981Z,14.63
2023-04-29T22:36:06.556Z,16.90
2023-04-29T22:38:35.038Z,18.13
2023-04-29T22:41:02.493Z,17.88
2023-04-29T22:43:29.937Z,18.08
2023-04-29T22:45:57.658Z,19.02
2023-04-29T22:48:27.650Z,17.50
2023-04-29T22:50:56.725Z,16.92
2023-04-29T22:53:24.169Z,16.55
2023-04-29T22:55:55.908Z,19.52
2023-04-29T22:58:27.105Z,17.50
2023-04-29T23:00:58.877Z,17.58
2023-04-29T23:03:27.260Z,19.88
2023-04-29T23:06:02.412Z,17.98
2023-04-29T23:08:29.948Z,15.20
2023-04-29T23:10:57.376Z,15.40
2023-04-29T23:13:24.826Z,18.58
2023-04-29T23:15:55.030Z,21.27
2023-04-29T23:18:22.522Z,17.98
2023-04-29T23:20:49.894Z,16.02
2023-04-29T23:23:17.310Z,15.68
2023-04-29T23:25:45.686Z,16.58
2023-04-29T23:28:13.134Z,15.57
2023-04-29T23:30:40.809Z,18.50
2023-04-29T23:33:08.273Z,19.55
2023-04-29T23:35:35.833Z,15.40
2023-04-29T23:38:03.303Z,21.00
2023-04-29T23:40:31.771Z,19.33
2023-04-29T23:42:59.344Z,17.30
2023-04-29T23:45:26.722Z,18.30
2023-04-29T23:47:54.124Z,18.45
2023-04-29T23:50:21.507Z,19.45
2023-04-29T23:52:49.046Z,18.20
2023-04-29T23:55:16.414Z,20.20
2023-04-29T23:57:43.792Z,19.55
